sensor_id;sensor_type;location;lat;lon;timestamp;pressure;altitude;pressure_sealevel;temperature;humidity
73566;BME280;61846;52.970;-3.168;2023-04-24T00:01:40;99803.60;;;11.48;47.53
73566;BME280;61846;52.970;-3.168;2023-04-24T00:04:06;99806.92;;;10.85;48.00
73566;BME280;61846;52.970;-3.168;2023-04-24T00:06:32;99810.27;;;10.98;48.21
73566;BME280;61846;52.970;-3.168;2023-04-24T00:08:57;99812.50;;;11.55;47.71
73566;BME280;61846;52.970;-3.168;2023-04-24T00:11:23;99817.61;;;11.16;47.85
73566;BME280;61846;52.970;-3.168;2023-04-24T00:13:48;99826.92;;;11.49;47.75
73566;BME280;61846;52.970;-3.168;2023-04-24T00:16:14;99828.63;;;12.06;47.36
73566;BME280;61846;52.970;-3.168;2023-04-24T00:18:39;99828.09;;;11.08;48.45
73566;BME280;61846;52.970;-3.168;2023-04-24T00:21:05;99825.28;;;11.53;47.30
73566;BME280;61846;52.970;-3.168;2023-04-24T00:23:30;99825.78;;;11.95;46.47
73566;BME280;61846;52.970;-3.168;2023-04-24T00:25:56;99827.15;;;12.06;45.75
73566;BME280;61846;52.970;-3.168;2023-04-24T00:28:21;99830.33;;;12.12;45.59
73566;BME280;61846;52.970;-3.168;2023-04-24T00:30:46;99832.47;;;11.71;46.57
73566;BME280;61846;52.970;-3.168;2023-04-24T00:33:12;99833.53;;;12.06;45.51
73566;BME280;61846;52.970;-3.168;2023-04-24T00:35:37;99837.04;;;12.19;44.82
73566;BME280;61846;52.970;-3.168;2023-04-24T00:38:03;99837.10;;;11.84;45.62
73566;BME280;61846;52.970;-3.168;2023-04-24T00:40:28;99835.72;;;11.18;46.52
73566;BME280;61846;52.970;-3.168;2023-04-24T00:42:54;99837.58;;;10.70;47.44
73566;BME280;61846;52.970;-3.168;2023-04-24T00:45:19;99834.59;;;11.73;46.19
73566;BME280;61846;52.970;-3.168;2023-04-24T00:47:45;99835.57;;;11.89;46.39
73566;BME280;61846;52.970;-3.168;2023-04-24T00:50:10;99832.33;;;12.10;45.91
73566;BME280;61846;52.970;-3.168;2023-04-24T00:52:35;99828.88;;;12.54;44.39
73566;BME280;61846;52.970;-3.168;2023-04-24T00:55:01;99828.54;;;11.42;46.32
73566;BME280;61846;52.970;-3.168;2023-04-24T00:57:27;99825.94;;;12.35;44.88
73566;BME280;61846;52.970;-3.168;2023-04-24T00:59:52;99823.96;;;12.33;44.09
73566;BME280;61846;52.970;-3.168;2023-04-24T01:02:18;99826.07;;;12.77;43.68
73566;BME280;61846;52.970;-3.168;2023-04-24T01:04:44;99827.75;;;12.65;43.84
73566;BME280;61846;52.970;-3.168;2023-04-24T01:07:08;99830.42;;;12.66;43.67
73566;BME280;61846;52.970;-3.168;2023-04-24T01:09:34;99832.27;;;12.36;43.79
73566;BME280;61846;52.970;-3.168;2023-04-24T01:11:59;99836.41;;;12.08;44.50
73566;BME280;61846;52.970;-3.168;2023-04-24T01:14:24;99840.07;;;12.76;43.25
73566;BME280;61846;52.970;-3.168;2023-04-24T01:16:50;99847.93;;;11.78;45.67
73566;BME280;61846;52.970;-3.168;2023-04-24T01:19:16;99849.98;;;11.83;45.68
73566;BME280;61846;52.970;-3.168;2023-04-24T01:21:42;99854.59;;;12.01;45.18
73566;BME280;61846;52.970;-3.168;2023-04-24T01:24:07;99858.58;;;11.92;45.20
73566;BME280;61846;52.970;-3.168;2023-04-24T01:26:32;99858.57;;;12.75;43.62
73566;BME280;61846;52.970;-3.168;2023-04-24T01:28:57;99859.03;;;11.58;45.53
73566;BME280;61846;52.970;-3.168;2023-04-24T01:31:23;99861.86;;;11.17;45.64
73566;BME280;61846;52.970;-3.168;2023-04-24T01:33:48;99860.69;;;12.11;44.23
73566;BME280;61846;52.970;-3.168;2023-04-24T01:36:14;99860.60;;;11.77;43.54
73566;BME280;61846;52.970;-3.168;2023-04-24T01:38:39;99858.51;;;12.13;43.86
73566;BME280;61846;52.970;-3.168;2023-04-24T01:41:04;99858.69;;;11.53;44.75
73566;BME280;61846;52.970;-3.168;2023-04-24T01:43:30;99860.30;;;12.40;43.75
73566;BME280;61846;52.970;-3.168;2023-04-24T01:45:55;99860.06;;;12.65;43.94
73566;BME280;61846;52.970;-3.168;2023-04-24T01:48:20;99859.58;;;12.58;44.53
73566;BME280;61846;52.970;-3.168;2023-04-24T01:50:46;99856.58;;;11.85;45.41
73566;BME280;61846;52.970;-3.168;2023-04-24T01:53:11;99851.02;;;12.43;44.94
73566;BME280;61846;52.970;-3.168;2023-04-24T01:55:37;99850.94;;;12.77;44.01
73566;BME280;61846;52.970;-3.168;2023-04-24T01:58:03;99850.03;;;12.43;43.80
73566;BME280;61846;52.970;-3.168;2023-04-24T02:00:28;99851.51;;;12.15;44.09
73566;BME280;61846;52.970;-3.168;2023-04-24T02:02:53;99853.85;;;12.58;44.24
73566;BME280;61846;52.970;-3.168;2023-04-24T02:05:19;99855.82;;;12.54;44.65
73566;BME280;61846;52.970;-3.168;2023-04-24T02:07:44;99855.13;;;12.59;44.50
73566;BME280;61846;52.970;-3.168;2023-04-24T02:10:11;99853.95;;;12.00;44.95
73566;BME280;61846;52.970;-3.168;2023-04-24T02:12:35;99855.88;;;12.72;44.53
73566;BME280;61846;52.970;-3.168;2023-04-24T02:15:01;99861.07;;;12.73;44.54
73566;BME280;61846;52.970;-3.168;2023-04-24T02:17:26;99867.13;;;12.24;45.27
73566;BME280;61846;52.970;-3.168;2023-04-24T02:19:52;99868.59;;;12.21;44.80
73566;BME280;61846;52.970;-3.168;2023-04-24T02:22:17;99870.23;;;12.12;44.68
73566;BME280;61846;52.970;-3.168;2023-04-24T02:24:43;99873.50;;;11.99;44.81
73566;BME280;61846;52.970;-3.168;2023-04-24T02:27:08;99873.72;;;12.07;45.08
73566;BME280;61846;52.970;-3.168;2023-04-24T02:29:34;99871.67;;;11.38;45.82
73566;BME280;61846;52.970;-3.168;2023-04-24T02:32:00;99869.43;;;12.19;45.03
73566;BME280;61846;52.970;-3.168;2023-04-24T02:34:25;99872.62;;;12.17;43.93
73566;BME280;61846;52.970;-3.168;2023-04-24T02:36:50;99872.14;;;10.85;46.13
73566;BME280;61846;52.970;-3.168;2023-04-24T02:39:16;99876.12;;;11.90;45.47
73566;BME280;61846;52.970;-3.168;2023-04-24T02:41:41;99879.82;;;11.97;44.71
73566;BME280;61846;52.970;-3.168;2023-04-24T02:44:06;99886.75;;;11.43;46.45
73566;BME280;61846;52.970;-3.168;2023-04-24T02:46:32;99890.91;;;12.23;45.59
73566;BME280;61846;52.970;-3.168;2023-04-24T02:48:57;99896.98;;;12.26;45.51
73566;BME280;61846;52.970;-3.168;2023-04-24T02:51:23;99901.33;;;12.17;45.83
73566;BME280;61846;52.970;-3.168;2023-04-24T02:53:48;99904.37;;;12.15;45.83
73566;BME280;61846;52.970;-3.168;2023-04-24T02:56:14;99906.37;;;11.76;45.95
73566;BME280;61846;52.970;-3.168;2023-04-24T02:58:39;99908.40;;;12.11;46.01
73566;BME280;61846;52.970;-3.168;2023-04-24T03:01:05;99908.46;;;10.90;47.54
73566;BME280;61846;52.970;-3.168;2023-04-24T03:03:31;99911.76;;;11.27;47.07
73566;BME280;61846;52.970;-3.168;2023-04-24T03:05:56;99915.72;;;11.44;46.84
73566;BME280;61846;52.970;-3.168;2023-04-24T03:08:21;99919.05;;;11.79;46.91
73566;BME280;61846;52.970;-3.168;2023-04-24T03:10:46;99920.18;;;11.12;47.44
73566;BME280;61846;52.970;-3.168;2023-04-24T03:13:12;99921.65;;;12.03;46.02
73566;BME280;61846;52.970;-3.168;2023-04-24T03:15:38;99926.74;;;11.90;45.68
73566;BME280;61846;52.970;-3.168;2023-04-24T03:18:04;99930.92;;;12.07;45.96
73566;BME280;61846;52.970;-3.168;2023-04-24T03:20:29;99930.72;;;11.89;45.83
73566;BME280;61846;52.970;-3.168;2023-04-24T03:22:54;99932.74;;;11.70;46.58
73566;BME280;61846;52.970;-3.168;2023-04-24T03:25:20;99933.05;;;11.47;46.74
73566;BME280;61846;52.970;-3.168;2023-04-24T03:27:46;99934.10;;;11.13;47.19
73566;BME280;61846;52.970;-3.168;2023-04-24T03:30:11;99934.39;;;11.23;47.48
73566;BME280;61846;52.970;-3.168;2023-04-24T03:32:36;99933.32;;;11.12;47.20
73566;BME280;61846;52.970;-3.168;2023-04-24T03:35:02;99928.02;;;10.76;48.00
73566;BME280;61846;52.970;-3.168;2023-04-24T03:37:27;99927.71;;;11.65;46.42
73566;BME280;61846;52.970;-3.168;2023-04-24T03:39:52;99929.95;;;11.91;45.72
73566;BME280;61846;52.970;-3.168;2023-04-24T03:42:18;99934.34;;;11.73;45.82
73566;BME280;61846;52.970;-3.168;2023-04-24T03:44:43;99933.92;;;11.93;45.56
73566;BME280;61846;52.970;-3.168;2023-04-24T03:47:09;99933.17;;;12.02;45.52
73566;BME280;61846;52.970;-3.168;2023-04-24T03:49:35;99934.46;;;12.05;45.81
73566;BME280;61846;52.970;-3.168;2023-04-24T03:51:59;99935.65;;;12.12;44.84
73566;BME280;61846;52.970;-3.168;2023-04-24T03:54:25;99938.80;;;11.43;46.51
73566;BME280;61846;52.970;-3.168;2023-04-24T03:56:50;99940.67;;;10.96;47.28
73566;BME280;61846;52.970;-3.168;2023-04-24T03:59:16;99941.84;;;11.53;46.30
73566;BME280;61846;52.970;-3.168;2023-04-24T04:01:41;99942.49;;;11.56;46.90
73566;BME280;61846;52.970;-3.168;2023-04-24T04:04:07;99943.42;;;11.85;45.97
73566;BME280;61846;52.970;-3.168;2023-04-24T04:06:32;99945.02;;;11.43;47.24
73566;BME280;61846;52.970;-3.168;2023-04-24T04:08:58;99944.98;;;10.47;48.49
73566;BME280;61846;52.970;-3.168;2023-04-24T04:11:23;99947.88;;;11.26;44.38
73566;BME280;61846;52.970;-3.168;2023-04-24T04:13:48;99948.15;;;11.54;45.23
73566;BME280;61846;52.970;-3.168;2023-04-24T04:16:13;99950.16;;;11.05;42.77
73566;BME280;61846;52.970;-3.168;2023-04-24T04:18:39;99950.46;;;11.55;42.17
73566;BME280;61846;52.970;-3.168;2023-04-24T04:21:05;99953.57;;;10.40;42.99
73566;BME280;61846;52.970;-3.168;2023-04-24T04:23:30;99957.98;;;9.54;43.39
73566;BME280;61846;52.970;-3.168;2023-04-24T04:25:56;99965.03;;;10.13;43.25
73566;BME280;61846;52.970;-3.168;2023-04-24T04:28:21;99966.49;;;9.88;42.82
73566;BME280;61846;52.970;-3.168;2023-04-24T04:30:46;99973.48;;;8.26;46.39
73566;BME280;61846;52.970;-3.168;2023-04-24T04:33:12;99971.61;;;8.10;46.80
73566;BME280;61846;52.970;-3.168;2023-04-24T04:35:37;99971.96;;;7.69;48.98
73566;BME280;61846;52.970;-3.168;2023-04-24T04:38:03;99969.53;;;9.46;46.07
73566;BME280;61846;52.970;-3.168;2023-04-24T04:40:28;99973.49;;;8.02;47.24
73566;BME280;61846;52.970;-3.168;2023-04-24T04:42:54;99972.12;;;9.44;44.70
73566;BME280;61846;52.970;-3.168;2023-04-24T04:45:19;99968.50;;;9.98;44.24
73566;BME280;61846;52.970;-3.168;2023-04-24T04:47:45;99970.09;;;10.49;43.36
73566;BME280;61846;52.970;-3.168;2023-04-24T04:50:10;99967.14;;;10.69;41.44
73566;BME280;61846;52.970;-3.168;2023-04-24T04:52:36;99972.19;;;9.54;44.48
73566;BME280;61846;52.970;-3.168;2023-04-24T04:55:02;99971.68;;;9.94;42.77
73566;BME280;61846;52.970;-3.168;2023-04-24T04:57:27;99976.10;;;9.74;44.74
73566;BME280;61846;52.970;-3.168;2023-04-24T04:59:53;99976.01;;;10.87;43.74
73566;BME280;61846;52.970;-3.168;2023-04-24T05:02:19;99984.81;;;10.99;42.10
73566;BME280;61846;52.970;-3.168;2023-04-24T05:04:44;99983.83;;;11.04;41.57
73566;BME280;61846;52.970;-3.168;2023-04-24T05:07:10;99987.76;;;10.39;42.48
73566;BME280;61846;52.970;-3.168;2023-04-24T05:09:35;99993.71;;;9.30;42.18
73566;BME280;61846;52.970;-3.168;2023-04-24T05:12:01;99995.27;;;10.04;43.06
73566;BME280;61846;52.970;-3.168;2023-04-24T05:14:26;100001.07;;;11.16;41.93
73566;BME280;61846;52.970;-3.168;2023-04-24T05:16:52;100003.70;;;10.62;40.94
73566;BME280;61846;52.970;-3.168;2023-04-24T05:19:17;100001.26;;;11.10;39.49
73566;BME280;61846;52.970;-3.168;2023-04-24T05:21:43;99999.13;;;11.28;41.35
73566;BME280;61846;52.970;-3.168;2023-04-24T05:24:09;100001.66;;;11.53;39.31
73566;BME280;61846;52.970;-3.168;2023-04-24T05:26:34;100004.22;;;10.68;40.75
73566;BME280;61846;52.970;-3.168;2023-04-24T05:29:00;100009.46;;;10.77;41.75
73566;BME280;61846;52.970;-3.168;2023-04-24T05:31:25;100011.70;;;10.73;40.47
73566;BME280;61846;52.970;-3.168;2023-04-24T05:33:51;100021.53;;;9.93;41.25
73566;BME280;61846;52.970;-3.168;2023-04-24T05:36:17;100021.52;;;10.50;40.34
73566;BME280;61846;52.970;-3.168;2023-04-24T05:38:42;100027.68;;;9.64;40.96
73566;BME280;61846;52.970;-3.168;2023-04-24T05:41:08;100032.21;;;9.41;42.83
73566;BME280;61846;52.970;-3.168;2023-04-24T05:43:34;100037.01;;;9.24;42.17
73566;BME280;61846;52.970;-3.168;2023-04-24T05:45:59;100036.57;;;10.09;40.71
73566;BME280;61846;52.970;-3.168;2023-04-24T05:48:25;100039.05;;;9.64;41.26
73566;BME280;61846;52.970;-3.168;2023-04-24T05:50:51;100042.53;;;8.15;41.28
73566;BME280;61846;52.970;-3.168;2023-04-24T05:53:16;100048.41;;;9.38;41.98
73566;BME280;61846;52.970;-3.168;2023-04-24T05:55:42;100050.49;;;9.64;43.67
73566;BME280;61846;52.970;-3.168;2023-04-24T05:58:08;100052.04;;;9.85;42.63
73566;BME280;61846;52.970;-3.168;2023-04-24T06:00:35;100055.55;;;10.38;40.84
73566;BME280;61846;52.970;-3.168;2023-04-24T06:02:59;100057.87;;;10.43;40.53
73566;BME280;61846;52.970;-3.168;2023-04-24T06:05:25;100060.07;;;10.42;41.68
73566;BME280;61846;52.970;-3.168;2023-04-24T06:07:51;100063.35;;;10.11;41.40
73566;BME280;61846;52.970;-3.168;2023-04-24T06:10:16;100065.11;;;10.81;41.60
73566;BME280;61846;52.970;-3.168;2023-04-24T06:12:41;100067.44;;;8.92;41.49
73566;BME280;61846;52.970;-3.168;2023-04-24T06:15:08;100070.39;;;9.23;42.53
73566;BME280;61846;52.970;-3.168;2023-04-24T06:17:33;100073.04;;;8.84;43.25
73566;BME280;61846;52.970;-3.168;2023-04-24T06:19:58;100077.84;;;8.29;43.81
73566;BME280;61846;52.970;-3.168;2023-04-24T06:22:24;100084.43;;;8.75;43.00
73566;BME280;61846;52.970;-3.168;2023-04-24T06:24:50;100086.22;;;8.42;43.98
73566;BME280;61846;52.970;-3.168;2023-04-24T06:27:15;100086.92;;;9.07;43.05
73566;BME280;61846;52.970;-3.168;2023-04-24T06:29:41;100088.11;;;8.61;43.64
73566;BME280;61846;52.970;-3.168;2023-04-24T06:32:07;100089.47;;;9.45;42.60
73566;BME280;61846;52.970;-3.168;2023-04-24T06:34:32;100092.79;;;9.35;42.16
73566;BME280;61846;52.970;-3.168;2023-04-24T06:36:58;100092.33;;;9.44;43.10
73566;BME280;61846;52.970;-3.168;2023-04-24T06:39:24;100092.03;;;9.55;42.67
73566;BME280;61846;52.970;-3.168;2023-04-24T06:41:49;100093.99;;;10.04;41.91
73566;BME280;61846;52.970;-3.168;2023-04-24T06:44:15;100094.05;;;9.97;42.85
73566;BME280;61846;52.970;-3.168;2023-04-24T06:46:41;100091.76;;;10.43;41.30
73566;BME280;61846;52.970;-3.168;2023-04-24T06:49:06;100095.68;;;10.26;41.03
73566;BME280;61846;52.970;-3.168;2023-04-24T06:51:32;100094.86;;;8.74;43.07
73566;BME280;61846;52.970;-3.168;2023-04-24T06:53:58;100094.71;;;10.15;39.16
73566;BME280;61846;52.970;-3.168;2023-04-24T06:56:23;100095.80;;;9.53;41.77
73566;BME280;61846;52.970;-3.168;2023-04-24T06:58:49;100098.07;;;7.98;43.42
73566;BME280;61846;52.970;-3.168;2023-04-24T07:01:14;100096.60;;;9.09;41.79
73566;BME280;61846;52.970;-3.168;2023-04-24T07:03:40;100099.57;;;9.51;40.47
73566;BME280;61846;52.970;-3.168;2023-04-24T07:06:06;100101.52;;;9.78;40.81
73566;BME280;61846;52.970;-3.168;2023-04-24T07:08:31;100099.08;;;9.47;41.16
73566;BME280;61846;52.970;-3.168;2023-04-24T07:10:57;100097.56;;;9.91;41.61
73566;BME280;61846;52.970;-3.168;2023-04-24T07:13:23;100096.57;;;9.98;42.82
73566;BME280;61846;52.970;-3.168;2023-04-24T07:15:48;100097.31;;;10.23;41.99
73566;BME280;61846;52.970;-3.168;2023-04-24T07:18:14;100093.07;;;10.23;40.92
73566;BME280;61846;52.970;-3.168;2023-04-24T07:20:39;100093.42;;;10.20;41.01
73566;BME280;61846;52.970;-3.168;2023-04-24T07:23:05;100091.17;;;9.67;41.95
73566;BME280;61846;52.970;-3.168;2023-04-24T07:25:31;100093.20;;;8.38;44.79
73566;BME280;61846;52.970;-3.168;2023-04-24T07:27:57;100098.08;;;7.57;44.91
73566;BME280;61846;52.970;-3.168;2023-04-24T07:30:22;100097.03;;;8.55;43.49
73566;BME280;61846;52.970;-3.168;2023-04-24T07:32:47;100099.82;;;8.45;45.77
73566;BME280;61846;52.970;-3.168;2023-04-24T07:35:13;100099.12;;;9.78;41.93
73566;BME280;61846;52.970;-3.168;2023-04-24T07:37:38;100101.98;;;9.05;43.12
73566;BME280;61846;52.970;-3.168;2023-04-24T07:40:05;100102.18;;;9.25;42.80
73566;BME280;61846;52.970;-3.168;2023-04-24T07:42:30;100102.25;;;10.46;40.75
73566;BME280;61846;52.970;-3.168;2023-04-24T07:44:56;100103.83;;;10.46;40.80
73566;BME280;61846;52.970;-3.168;2023-04-24T07:47:21;100103.25;;;9.99;40.91
73566;BME280;61846;52.970;-3.168;2023-04-24T07:49:46;100099.27;;;10.65;40.31
73566;BME280;61846;52.970;-3.168;2023-04-24T07:52:12;100099.30;;;10.44;39.87
73566;BME280;61846;52.970;-3.168;2023-04-24T07:54:38;100096.56;;;10.93;39.34
73566;BME280;61846;52.970;-3.168;2023-04-24T07:57:03;100099.30;;;10.75;39.58
73566;BME280;61846;52.970;-3.168;2023-04-24T07:59:29;100099.67;;;10.55;41.63
73566;BME280;61846;52.970;-3.168;2023-04-24T08:01:55;100096.46;;;10.82;40.21
73566;BME280;61846;52.970;-3.168;2023-04-24T08:04:20;100095.66;;;10.68;39.72
73566;BME280;61846;52.970;-3.168;2023-04-24T08:06:47;100106.03;;;10.00;39.80
73566;BME280;61846;52.970;-3.168;2023-04-24T08:09:12;100105.76;;;10.55;38.74
73566;BME280;61846;52.970;-3.168;2023-04-24T08:11:37;100109.51;;;7.71;44.89
73566;BME280;61846;52.970;-3.168;2023-04-24T08:14:03;100114.12;;;9.83;41.65
73566;BME280;61846;52.970;-3.168;2023-04-24T08:16:28;100115.57;;;9.70;44.26
73566;BME280;61846;52.970;-3.168;2023-04-24T08:18:54;100119.81;;;8.82;41.64
73566;BME280;61846;52.970;-3.168;2023-04-24T08:21:20;100119.36;;;9.57;41.75
73566;BME280;61846;52.970;-3.168;2023-04-24T08:23:46;100117.89;;;9.25;40.59
73566;BME280;61846;52.970;-3.168;2023-04-24T08:26:11;100116.69;;;7.38;43.12
73566;BME280;61846;52.970;-3.168;2023-04-24T08:28:37;100117.97;;;9.63;41.99
73566;BME280;61846;52.970;-3.168;2023-04-24T08:31:03;100111.86;;;9.31;40.48
73566;BME280;61846;52.970;-3.168;2023-04-24T08:33:28;100113.92;;;9.48;40.49
73566;BME280;61846;52.970;-3.168;2023-04-24T08:35:53;100118.96;;;9.73;40.93
73566;BME280;61846;52.970;-3.168;2023-04-24T08:38:19;100123.58;;;9.94;39.56
73566;BME280;61846;52.970;-3.168;2023-04-24T08:40:45;100123.70;;;9.05;40.03
73566;BME280;61846;52.970;-3.168;2023-04-24T08:43:11;100131.33;;;10.26;40.30
73566;BME280;61846;52.970;-3.168;2023-04-24T08:45:36;100136.99;;;10.75;40.23
73566;BME280;61846;52.970;-3.168;2023-04-24T08:48:02;100137.83;;;10.24;39.59
73566;BME280;61846;52.970;-3.168;2023-04-24T08:50:27;100132.03;;;11.16;36.66
73566;BME280;61846;52.970;-3.168;2023-04-24T08:52:52;100135.14;;;10.36;38.27
73566;BME280;61846;52.970;-3.168;2023-04-24T08:55:18;100138.74;;;10.53;39.67
73566;BME280;61846;52.970;-3.168;2023-04-24T08:57:45;100139.63;;;10.21;38.14
73566;BME280;61846;52.970;-3.168;2023-04-24T09:00:10;100138.76;;;10.33;38.75
73566;BME280;61846;52.970;-3.168;2023-04-24T09:02:34;100135.97;;;10.86;37.18
73566;BME280;61846;52.970;-3.168;2023-04-24T09:05:00;100135.54;;;11.23;38.12
73566;BME280;61846;52.970;-3.168;2023-04-24T09:07:27;100138.11;;;9.50;37.90
73566;BME280;61846;52.970;-3.168;2023-04-24T09:09:51;100136.92;;;9.11;38.98
73566;BME280;61846;52.970;-3.168;2023-04-24T09:12:17;100138.80;;;9.27;40.28
73566;BME280;61846;52.970;-3.168;2023-04-24T09:14:42;100137.71;;;9.32;40.60
73566;BME280;61846;52.970;-3.168;2023-04-24T09:17:08;100140.93;;;8.53;39.56
73566;BME280;61846;52.970;-3.168;2023-04-24T09:19:33;100137.43;;;10.00;38.38
73566;BME280;61846;52.970;-3.168;2023-04-24T09:21:59;100142.34;;;9.99;37.15
73566;BME280;61846;52.970;-3.168;2023-04-24T09:24:25;100144.85;;;9.40;39.38
73566;BME280;61846;52.970;-3.168;2023-04-24T09:26:57;100142.27;;;8.95;41.29
73566;BME280;61846;52.970;-3.168;2023-04-24T09:29:17;100140.77;;;9.88;39.43
73566;BME280;61846;52.970;-3.168;2023-04-24T09:31:42;100140.90;;;10.32;36.57
73566;BME280;61846;52.970;-3.168;2023-04-24T09:34:07;100139.45;;;10.59;36.98
73566;BME280;61846;52.970;-3.168;2023-04-24T09:36:34;100143.86;;;10.68;38.95
73566;BME280;61846;52.970;-3.168;2023-04-24T09:39:00;100145.39;;;10.57;37.86
73566;BME280;61846;52.970;-3.168;2023-04-24T09:41:24;100148.69;;;7.85;41.42
73566;BME280;61846;52.970;-3.168;2023-04-24T09:43:50;100146.59;;;10.22;40.83
73566;BME280;61846;52.970;-3.168;2023-04-24T09:46:18;100145.69;;;9.93;36.77
73566;BME280;61846;52.970;-3.168;2023-04-24T09:48:41;100150.84;;;9.41;38.53
73566;BME280;61846;52.970;-3.168;2023-04-24T09:51:06;100147.18;;;10.49;36.56
73566;BME280;61846;52.970;-3.168;2023-04-24T09:53:32;100147.56;;;10.53;37.15
73566;BME280;61846;52.970;-3.168;2023-04-24T09:56:02;100146.28;;;11.71;36.78
73566;BME280;61846;52.970;-3.168;2023-04-24T09:58:26;100150.95;;;11.39;35.94
73566;BME280;61846;52.970;-3.168;2023-04-24T10:00:47;100150.16;;;11.95;36.31
73566;BME280;61846;52.970;-3.168;2023-04-24T10:03:13;100150.85;;;12.05;35.90
73566;BME280;61846;52.970;-3.168;2023-04-24T10:05:39;100152.76;;;11.68;36.01
73566;BME280;61846;52.970;-3.168;2023-04-24T10:08:05;100154.14;;;11.57;36.10
73566;BME280;61846;52.970;-3.168;2023-04-24T10:10:29;100163.00;;;9.22;39.99
73566;BME280;61846;52.970;-3.168;2023-04-24T10:12:55;100163.34;;;9.90;37.21
73566;BME280;61846;52.970;-3.168;2023-04-24T10:15:21;100163.42;;;10.38;37.58
73566;BME280;61846;52.970;-3.168;2023-04-24T10:17:48;100161.58;;;11.57;35.09
73566;BME280;61846;52.970;-3.168;2023-04-24T10:20:12;100165.82;;;11.36;35.62
73566;BME280;61846;52.970;-3.168;2023-04-24T10:22:38;100172.38;;;11.67;35.35
73566;BME280;61846;52.970;-3.168;2023-04-24T10:25:04;100173.01;;;11.17;35.89
73566;BME280;61846;52.970;-3.168;2023-04-24T10:27:31;100178.54;;;11.11;36.28
73566;BME280;61846;52.970;-3.168;2023-04-24T10:29:55;100171.50;;;12.22;33.91
73566;BME280;61846;52.970;-3.168;2023-04-24T10:32:20;100172.09;;;12.15;33.80
73566;BME280;61846;52.970;-3.168;2023-04-24T10:34:45;100175.36;;;10.91;36.79
73566;BME280;61846;52.970;-3.168;2023-04-24T10:37:11;100175.25;;;11.41;36.13
73566;BME280;61846;52.970;-3.168;2023-04-24T10:39:37;100171.26;;;12.62;34.27
73566;BME280;61846;52.970;-3.168;2023-04-24T10:44:35;100174.69;;;12.23;35.22
73566;BME280;61846;52.970;-3.168;2023-04-24T10:46:54;100176.05;;;12.14;34.45
73566;BME280;61846;52.970;-3.168;2023-04-24T10:49:29;100185.23;;;10.69;35.76
73566;BME280;61846;52.970;-3.168;2023-04-24T10:51:47;100185.10;;;12.27;34.19
73566;BME280;61846;52.970;-3.168;2023-04-24T10:54:23;100183.17;;;12.83;33.11
73566;BME280;61846;52.970;-3.168;2023-04-24T10:56:35;100189.47;;;12.96;32.53
73566;BME280;61846;52.970;-3.168;2023-04-24T10:59:00;100195.00;;;11.94;33.54
73566;BME280;61846;52.970;-3.168;2023-04-24T11:01:27;100191.74;;;11.94;33.93
73566;BME280;61846;52.970;-3.168;2023-04-24T11:03:54;100186.64;;;12.67;33.47
73566;BME280;61846;52.970;-3.168;2023-04-24T11:08:44;100187.50;;;11.99;34.80
73566;BME280;61846;52.970;-3.168;2023-04-24T11:11:11;100182.79;;;12.24;34.26
73566;BME280;61846;52.970;-3.168;2023-04-24T11:16:13;100184.69;;;13.58;33.39
73566;BME280;61846;52.970;-3.168;2023-04-24T11:18:23;100185.85;;;12.78;33.43
73566;BME280;61846;52.970;-3.168;2023-04-24T11:20:48;100183.50;;;12.28;34.39
73566;BME280;61846;52.970;-3.168;2023-04-24T11:23:14;100185.72;;;12.58;34.91
73566;BME280;61846;52.970;-3.168;2023-04-24T11:25:40;100184.24;;;12.70;33.41
73566;BME280;61846;52.970;-3.168;2023-04-24T11:28:05;100187.28;;;12.57;32.97
73566;BME280;61846;52.970;-3.168;2023-04-24T11:30:31;100184.82;;;11.88;33.45
73566;BME280;61846;52.970;-3.168;2023-04-24T11:33:05;100190.65;;;10.12;36.74
73566;BME280;61846;52.970;-3.168;2023-04-24T11:35:22;100186.61;;;12.02;34.50
73566;BME280;61846;52.970;-3.168;2023-04-24T11:37:48;100181.25;;;12.63;33.27
73566;BME280;61846;52.970;-3.168;2023-04-24T11:40:13;100181.15;;;12.34;34.33
73566;BME280;61846;52.970;-3.168;2023-04-24T11:42:38;100177.97;;;12.88;33.42
73566;BME280;61846;52.970;-3.168;2023-04-24T11:45:08;100184.29;;;11.58;33.86
73566;BME280;61846;52.970;-3.168;2023-04-24T11:47:29;100180.44;;;12.89;33.47
73566;BME280;61846;52.970;-3.168;2023-04-24T11:49:53;100179.12;;;12.91;33.50
73566;BME280;61846;52.970;-3.168;2023-04-24T11:52:19;100185.46;;;11.54;35.31
73566;BME280;61846;52.970;-3.168;2023-04-24T11:54:49;100188.45;;;12.96;31.72
73566;BME280;61846;52.970;-3.168;2023-04-24T11:57:10;100192.31;;;12.48;32.92
73566;BME280;61846;52.970;-3.168;2023-04-24T11:59:36;100193.16;;;13.12;31.68
73566;BME280;61846;52.970;-3.168;2023-04-24T12:02:00;100197.26;;;12.59;31.07
73566;BME280;61846;52.970;-3.168;2023-04-24T12:04:26;100195.95;;;13.03;32.09
73566;BME280;61846;52.970;-3.168;2023-04-24T12:07:00;100194.13;;;14.06;31.51
73566;BME280;61846;52.970;-3.168;2023-04-24T12:09:17;100198.67;;;13.03;31.63
73566;BME280;61846;52.970;-3.168;2023-04-24T12:11:52;100199.19;;;13.33;31.07
73566;BME280;61846;52.970;-3.168;2023-04-24T12:14:10;100201.31;;;13.44;31.19
73566;BME280;61846;52.970;-3.168;2023-04-24T12:16:34;100206.37;;;13.25;31.14
73566;BME280;61846;52.970;-3.168;2023-04-24T12:19:00;100210.20;;;12.99;31.84
73566;BME280;61846;52.970;-3.168;2023-04-24T12:21:25;100211.51;;;13.07;30.98
73566;BME280;61846;52.970;-3.168;2023-04-24T12:23:54;100214.23;;;12.16;32.90
73566;BME280;61846;52.970;-3.168;2023-04-24T12:26:17;100212.46;;;13.66;31.02
73566;BME280;61846;52.970;-3.168;2023-04-24T12:28:42;100212.99;;;12.14;32.03
73566;BME280;61846;52.970;-3.168;2023-04-24T12:31:07;100217.30;;;12.52;33.16
73566;BME280;61846;52.970;-3.168;2023-04-24T12:33:34;100215.74;;;13.89;31.27
73566;BME280;61846;52.970;-3.168;2023-04-24T12:35:59;100219.72;;;10.90;35.04
73566;BME280;61846;52.970;-3.168;2023-04-24T12:38:26;100218.50;;;13.32;32.32
73566;BME280;61846;52.970;-3.168;2023-04-24T12:43:16;100221.13;;;13.20;31.20
73566;BME280;61846;52.970;-3.168;2023-04-24T12:45:40;100224.54;;;13.02;31.35
73566;BME280;61846;52.970;-3.168;2023-04-24T12:48:06;100221.53;;;13.16;31.48